Arvilla, North Dakota
Current Conditions -  °F | °C
As of 9:23 AM on Thursday 30 Oct 2014 (Local Time) from KRDR Reporting Station
Overcast Overcast  
Wind Chill: 27°   Ceiling: 2900
Heat Index: 36°   Visibility: 10mi
Dew Point: 32°   Wind: 13mph
Humidity: 87%   Direction: 10°N
Pressure: 30.22"   Gusts: NA
Location:  47.92°N, 97.49°W
Report Text: KRDR 301423Z AUTO 01011KT 10SM OVC029 02/00 A3022 RMK AO2 $
Loading
Personal Weather Stations






























Interactive Weather Map
Tropical Storm Tracking
New forecast layout! Learn more

10-Day Weather Forecast

Advertisements
Track Severe Weather on mobile